createdAt,value
2023-01-29T00:02:14.802Z,-0.10
2023-01-29T00:04:41.694Z,-0.10
2023-01-29T00:07:08.648Z,-0.10
2023-01-29T00:09:35.840Z,-0.20
2023-01-29T00:12:02.837Z,-0.20
2023-01-29T00:14:29.727Z,2.00
2023-01-29T00:16:56.789Z,-0.30
2023-01-29T00:19:23.680Z,-0.20
2023-01-29T00:21:50.549Z,-0.20
2023-01-29T00:24:17.484Z,-0.20
2023-01-29T00:26:44.439Z,-0.20
2023-01-29T00:29:11.570Z,-0.20
2023-01-29T00:31:38.557Z,2.60
2023-01-29T00:34:05.508Z,-0.30
2023-01-29T00:36:32.494Z,-0.30
2023-01-29T00:39:03.464Z,-0.30
2023-01-29T00:41:51.630Z,-0.40
2023-01-29T00:44:37.474Z,-0.30
2023-01-29T00:47:25.406Z,-0.40
2023-01-29T00:49:52.686Z,1.70
2023-01-29T00:52:25.376Z,-0.30
2023-01-29T00:54:57.312Z,-0.20
2023-01-29T00:57:26.935Z,-0.20
2023-01-29T00:59:54.039Z,-0.20
2023-01-29T01:02:40.349Z,-0.20
2023-01-29T01:05:17.738Z,-0.10
2023-01-29T01:07:51.452Z,-0.10
2023-01-29T01:10:28.979Z,-0.10
2023-01-29T01:13:03.057Z,-0.10
2023-01-29T01:15:35.701Z,3.10
2023-01-29T01:18:03.487Z,-0.10
2023-01-29T01:20:33.920Z,0.70
2023-01-29T01:23:00.943Z,-0.10
2023-01-29T01:25:28.336Z,-0.10
2023-01-29T01:27:57.076Z,-0.10
2023-01-29T01:30:25.872Z,-0.10
2023-01-29T01:32:53.148Z,-0.10
2023-01-29T01:35:20.182Z,-0.10
2023-01-29T01:37:47.044Z,-0.10
2023-01-29T01:40:21.246Z,-0.20
2023-01-29T01:42:54.192Z,0.00
2023-01-29T01:45:36.338Z,0.00
2023-01-29T01:48:16.480Z,-0.10
2023-01-29T01:50:44.773Z,-0.10
2023-01-29T01:53:15.591Z,-0.20
2023-01-29T01:55:51.185Z,-0.10
2023-01-29T01:58:30.622Z,-0.10
2023-01-29T02:00:57.911Z,-0.10
2023-01-29T02:03:45.488Z,-0.20
2023-01-29T02:06:31.234Z,-0.20
2023-01-29T02:09:37.018Z,-0.10
2023-01-29T02:12:16.248Z,-0.10
2023-01-29T02:14:44.439Z,-0.10
2023-01-29T02:17:18.043Z,-0.10
2023-01-29T02:19:57.453Z,-0.10
2023-01-29T02:22:28.280Z,-0.10
2023-01-29T02:25:19.129Z,-0.20
2023-01-29T02:27:49.132Z,-0.20
2023-01-29T02:30:40.647Z,-0.10
2023-01-29T02:33:26.144Z,-0.20
2023-01-29T02:36:25.051Z,-0.20
2023-01-29T02:39:18.478Z,-0.10
2023-01-29T02:42:27.381Z,-0.20
2023-01-29T02:45:19.508Z,-0.30
2023-01-29T02:48:01.279Z,-0.30
2023-01-29T02:50:54.300Z,-0.30
2023-01-29T02:53:41.354Z,-0.40
2023-01-29T02:56:17.829Z,-0.40
2023-01-29T02:59:18.015Z,-0.50
2023-01-29T03:02:13.880Z,-0.60
2023-01-29T03:04:49.252Z,-0.70
2023-01-29T03:07:42.599Z,-0.80
2023-01-29T03:10:33.390Z,-0.60
2023-01-29T03:13:57.214Z,-1.00
2023-01-29T03:16:42.977Z,-1.10
2023-01-29T03:19:16.686Z,-1.10
2023-01-29T03:21:59.322Z,-1.30
2023-01-29T03:25:06.637Z,-1.30
2023-01-29T03:28:02.631Z,-1.30
2023-01-29T03:30:52.034Z,-1.40
2023-01-29T03:33:24.097Z,-1.50
2023-01-29T03:36:17.555Z,-1.50
2023-01-29T03:38:45.454Z,-1.50
2023-01-29T03:41:31.428Z,-1.60
2023-01-29T03:44:15.065Z,-1.50
2023-01-29T03:47:15.000Z,-1.70
2023-01-29T03:50:31.510Z,-1.70
2023-01-29T03:53:16.262Z,-1.60
2023-01-29T03:56:08.666Z,-1.70
2023-01-29T03:59:20.135Z,-1.80
2023-01-29T04:02:14.014Z,-1.80
2023-01-29T04:04:45.359Z,-1.80
2023-01-29T04:07:24.559Z,-1.90
2023-01-29T04:10:00.624Z,-2.00
2023-01-29T04:12:35.211Z,-2.00
2023-01-29T04:15:06.157Z,-2.00
2023-01-29T04:17:39.935Z,-2.00
2023-01-29T04:20:08.200Z,-2.10
2023-01-29T04:22:38.351Z,-2.00
2023-01-29T04:25:16.137Z,-2.10
2023-01-29T04:28:06.072Z,-2.10
2023-01-29T04:31:01.225Z,-2.20
2023-01-29T04:33:35.662Z,-2.30
2023-01-29T04:36:26.924Z,-2.20
2023-01-29T04:39:22.551Z,-2.20
2023-01-29T04:42:07.446Z,-2.20
2023-01-29T04:44:49.921Z,-2.20
2023-01-29T04:47:49.290Z,-2.30
2023-01-29T04:50:29.174Z,-2.30
2023-01-29T04:53:01.890Z,-2.40
2023-01-29T04:58:41.420Z,-2.50
2023-01-29T05:01:13.992Z,-2.60
2023-01-29T05:03:45.403Z,-2.70
2023-01-29T05:06:13.355Z,-2.70
2023-01-29T05:08:41.220Z,-2.70
2023-01-29T05:11:09.075Z,-2.80
2023-01-29T05:13:40.317Z,-2.70
2023-01-29T05:16:22.790Z,-2.70
2023-01-29T05:26:40.051Z,-1.90
2023-01-29T05:34:01.709Z,-2.60
2023-01-29T05:38:55.999Z,-2.50
2023-01-29T05:41:22.903Z,-2.70
2023-01-29T05:43:49.822Z,-2.70
2023-01-29T05:48:44.069Z,-2.70
2023-01-29T05:58:34.684Z,-2.80
2023-01-29T06:01:18.425Z,-2.80
2023-01-29T06:03:45.947Z,-2.80
2023-01-29T06:08:41.020Z,-2.90
2023-01-29T06:11:10.326Z,-3.00
2023-01-29T06:13:37.483Z,-3.10
2023-01-29T06:16:09.933Z,-3.10
2023-01-29T06:18:38.397Z,-3.00
2023-01-29T06:21:07.540Z,-3.10
2023-01-29T06:26:08.649Z,-3.10
2023-01-29T06:31:22.036Z,-3.10
2023-01-29T06:33:50.879Z,-3.20
2023-01-29T06:41:14.778Z,-3.20
2023-01-29T06:43:44.994Z,-3.20
2023-01-29T06:51:09.331Z,-2.90
2023-01-29T06:56:06.241Z,-3.00
2023-01-29T06:58:36.171Z,-3.10
2023-01-29T07:01:17.579Z,-3.00
2023-01-29T07:06:33.811Z,-3.00
2023-01-29T07:09:00.779Z,-3.00
2023-01-29T07:16:23.438Z,-2.90
2023-01-29T07:21:18.128Z,-2.80
2023-01-29T07:28:40.913Z,-2.80
2023-01-29T07:31:09.160Z,-2.70
2023-01-29T07:36:09.018Z,-2.60
2023-01-29T07:41:03.968Z,-2.60
2023-01-29T07:46:03.822Z,-2.40
2023-01-29T07:48:30.760Z,-2.40
2023-01-29T07:50:58.880Z,-2.30
2023-01-29T07:53:27.674Z,-2.30
2023-01-29T07:55:54.690Z,-2.30
2023-01-29T07:58:21.998Z,-2.30
2023-01-29T08:00:49.038Z,-2.20
2023-01-29T08:03:20.215Z,-2.20
2023-01-29T08:05:47.832Z,-2.10
2023-01-29T08:10:42.585Z,-1.90
2023-01-29T08:13:09.681Z,-1.80
2023-01-29T08:15:39.107Z,-1.70
2023-01-29T08:18:07.028Z,-1.80
2023-01-29T08:20:33.896Z,-1.90
2023-01-29T08:23:08.084Z,-1.80
2023-01-29T08:25:36.364Z,-1.70
2023-01-29T08:28:04.288Z,-1.70
2023-01-29T08:30:34.018Z,-1.60
2023-01-29T08:33:01.525Z,-1.60
2023-01-29T08:35:28.475Z,-1.60
2023-01-29T08:38:01.311Z,-1.40
2023-01-29T08:40:33.813Z,-1.40
2023-01-29T08:43:07.784Z,-1.20
2023-01-29T08:45:38.721Z,-1.10
2023-01-29T08:48:06.265Z,-1.10
2023-01-29T08:50:34.928Z,-1.10
2023-01-29T08:53:04.501Z,-1.20
2023-01-29T08:55:31.378Z,1.50
2023-01-29T08:57:58.352Z,-0.90
2023-01-29T09:00:25.383Z,-1.00
2023-01-29T09:02:52.489Z,0.90
2023-01-29T09:05:19.815Z,-1.00
2023-01-29T09:07:46.937Z,-1.00
2023-01-29T09:10:13.865Z,-1.00
2023-01-29T09:12:40.820Z,-0.90
2023-01-29T09:15:08.672Z,-0.80
2023-01-29T09:17:35.752Z,-0.70
2023-01-29T09:20:02.803Z,-0.50
2023-01-29T09:22:29.690Z,-0.20
2023-01-29T09:24:56.638Z,0.00
2023-01-29T09:27:24.354Z,0.30
2023-01-29T09:29:51.218Z,0.70
2023-01-29T09:32:37.757Z,1.00
2023-01-29T09:35:05.964Z,4.10
2023-01-29T09:37:32.931Z,1.70
2023-01-29T09:39:59.845Z,1.90
2023-01-29T09:42:49.582Z,2.10
2023-01-29T09:45:24.755Z,2.40
2023-01-29T09:47:52.518Z,2.60
2023-01-29T09:50:37.503Z,2.70
2023-01-29T09:53:51.134Z,3.00
2023-01-29T09:56:21.932Z,3.30
2023-01-29T09:58:48.907Z,3.50
2023-01-29T10:01:54.142Z,3.60
2023-01-29T10:04:39.141Z,3.90
2023-01-29T10:07:17.830Z,4.10
2023-01-29T10:10:19.177Z,4.20
2023-01-29T10:13:22.013Z,4.30
2023-01-29T10:16:41.564Z,4.30
2023-01-29T10:19:18.342Z,4.30
2023-01-29T10:22:24.370Z,5.50
2023-01-29T10:25:06.020Z,4.30
2023-01-29T10:27:38.480Z,4.30
2023-01-29T10:30:41.455Z,4.30
2023-01-29T10:33:18.750Z,4.30
2023-01-29T10:35:55.944Z,5.00
2023-01-29T10:38:38.436Z,5.00
2023-01-29T10:41:11.410Z,4.20
2023-01-29T10:43:53.139Z,4.20
2023-01-29T10:47:13.028Z,4.30
2023-01-29T10:50:19.564Z,4.40
2023-01-29T10:52:58.076Z,4.50
2023-01-29T10:55:53.207Z,4.50
2023-01-29T10:58:31.961Z,4.60
2023-01-29T11:00:59.168Z,4.60
2023-01-29T11:03:29.023Z,4.60
2023-01-29T11:06:11.822Z,4.60
2023-01-29T11:09:08.941Z,4.60
2023-01-29T11:11:46.535Z,4.60
2023-01-29T11:14:23.099Z,4.70
2023-01-29T11:16:50.186Z,4.90
2023-01-29T11:19:17.205Z,6.30
2023-01-29T11:22:01.010Z,4.90
2023-01-29T11:24:29.243Z,5.10
2023-01-29T11:26:59.532Z,5.30
2023-01-29T11:29:44.426Z,7.40
2023-01-29T11:32:26.432Z,5.70
2023-01-29T11:35:04.870Z,6.00
2023-01-29T11:37:44.872Z,6.30
2023-01-29T11:40:23.878Z,6.70
2023-01-29T11:42:53.948Z,7.00
2023-01-29T11:45:23.410Z,7.30
2023-01-29T11:47:56.105Z,7.50
2023-01-29T11:50:29.923Z,10.60
2023-01-29T11:52:59.034Z,7.90
2023-01-29T11:55:41.015Z,9.70
2023-01-29T11:58:29.906Z,8.70
2023-01-29T12:00:58.392Z,8.50
2023-01-29T12:03:41.501Z,8.70
2023-01-29T12:06:24.373Z,8.80
2023-01-29T12:09:00.444Z,8.90
2023-01-29T12:11:34.967Z,8.90
2023-01-29T12:14:06.388Z,8.80
2023-01-29T12:17:14.603Z,9.20
2023-01-29T12:19:55.406Z,8.70
2023-01-29T12:22:43.248Z,8.60
2023-01-29T12:25:24.534Z,8.40
2023-01-29T12:28:09.470Z,8.20
2023-01-29T12:31:08.848Z,9.80
2023-01-29T12:34:29.978Z,7.70
2023-01-29T12:37:25.933Z,7.40
2023-01-29T12:39:52.948Z,7.20
2023-01-29T12:42:48.831Z,9.80
2023-01-29T12:45:20.103Z,7.00
2023-01-29T12:47:55.559Z,7.00
2023-01-29T12:50:37.719Z,9.30
2023-01-29T12:53:35.395Z,6.30
2023-01-29T12:56:18.762Z,6.20
2023-01-29T12:58:53.045Z,6.00
2023-01-29T13:01:49.690Z,6.00
2023-01-29T13:04:51.318Z,5.90
2023-01-29T13:07:27.273Z,6.00
2023-01-29T13:10:04.606Z,6.10
2023-01-29T13:13:15.911Z,6.10
2023-01-29T13:15:44.350Z,6.10
2023-01-29T13:18:35.995Z,6.20
2023-01-29T13:21:04.676Z,6.20
2023-01-29T13:23:52.298Z,6.20
2023-01-29T13:26:23.665Z,7.60
2023-01-29T13:28:56.301Z,5.90
2023-01-29T13:31:42.478Z,5.70
2023-01-29T13:34:33.437Z,5.60
2023-01-29T13:37:20.123Z,5.60
2023-01-29T13:39:52.611Z,5.50
2023-01-29T13:42:33.223Z,5.60
2023-01-29T13:45:05.301Z,5.80
2023-01-29T13:47:35.567Z,5.90
2023-01-29T13:50:49.737Z,6.10
2023-01-29T13:53:29.807Z,6.20
2023-01-29T13:56:34.772Z,6.20
2023-01-29T13:59:05.436Z,6.00
2023-01-29T14:01:47.574Z,7.20
2023-01-29T14:04:26.721Z,5.50
2023-01-29T14:06:55.889Z,5.20
2023-01-29T14:09:38.016Z,5.00
2023-01-29T14:12:26.070Z,4.70
2023-01-29T14:14:56.691Z,4.50
2023-01-29T14:17:26.279Z,4.20
2023-01-29T14:20:04.593Z,4.10
2023-01-29T14:22:33.873Z,4.00
2023-01-29T14:25:05.194Z,3.90
2023-01-29T14:27:32.984Z,3.80
2023-01-29T14:30:06.292Z,3.70
2023-01-29T14:32:33.959Z,3.60
2023-01-29T14:35:10.644Z,3.40
2023-01-29T14:37:41.122Z,3.40
2023-01-29T14:40:10.747Z,3.40
2023-01-29T14:43:00.106Z,3.30
2023-01-29T14:45:36.627Z,5.60
2023-01-29T14:48:38.632Z,3.10
2023-01-29T14:51:15.624Z,3.10
2023-01-29T14:54:02.773Z,3.00
2023-01-29T14:56:42.325Z,3.00
2023-01-29T14:59:34.700Z,2.90
2023-01-29T15:02:17.063Z,2.80
2023-01-29T15:04:54.096Z,2.70
2023-01-29T15:07:29.738Z,2.70
2023-01-29T15:10:22.029Z,2.60
2023-01-29T15:12:59.884Z,2.60
2023-01-29T15:15:36.850Z,2.50
2023-01-29T15:18:08.937Z,2.40
2023-01-29T15:20:39.881Z,2.40
2023-01-29T15:23:32.109Z,2.40
2023-01-29T15:26:03.475Z,2.30
2023-01-29T15:28:32.975Z,2.20
2023-01-29T15:31:04.459Z,2.30
2023-01-29T15:33:33.871Z,2.10
2023-01-29T15:36:07.720Z,2.10
2023-01-29T15:38:35.879Z,2.00
2023-01-29T15:41:24.391Z,1.90
2023-01-29T15:43:57.932Z,1.80
2023-01-29T15:46:33.954Z,1.70
2023-01-29T15:49:07.252Z,1.70
2023-01-29T15:51:34.466Z,1.60
2023-01-29T15:54:10.412Z,1.60
2023-01-29T15:56:47.203Z,1.60
2023-01-29T15:59:25.000Z,1.50
2023-01-29T16:01:53.135Z,1.40
2023-01-29T16:04:38.294Z,1.50
2023-01-29T16:07:05.299Z,1.50
2023-01-29T16:09:32.280Z,1.40
2023-01-29T16:11:59.843Z,1.30
2023-01-29T16:14:28.784Z,1.30
2023-01-29T16:16:55.774Z,1.30
2023-01-29T16:19:29.042Z,1.30
2023-01-29T16:22:03.901Z,1.20
2023-01-29T16:24:35.083Z,1.30
2023-01-29T16:27:12.023Z,1.20
2023-01-29T16:29:39.165Z,1.30
2023-01-29T16:32:06.813Z,1.20
2023-01-29T16:34:48.227Z,1.10
2023-01-29T16:37:36.297Z,1.00
2023-01-29T16:40:21.692Z,0.90
2023-01-29T16:42:48.642Z,1.00
2023-01-29T16:45:29.391Z,0.90
2023-01-29T16:48:27.895Z,1.00
2023-01-29T16:51:20.758Z,0.90
2023-01-29T16:54:02.302Z,0.80
2023-01-29T16:56:32.548Z,0.80
2023-01-29T16:59:01.510Z,0.90
2023-01-29T17:01:30.107Z,1.60
2023-01-29T17:04:01.365Z,0.80
2023-01-29T17:06:31.828Z,0.80
2023-01-29T17:08:59.751Z,0.80
2023-01-29T17:11:33.323Z,0.80
2023-01-29T17:14:00.996Z,0.70
2023-01-29T17:16:37.534Z,0.70
2023-01-29T17:19:20.853Z,0.70
2023-01-29T17:21:48.026Z,0.60
2023-01-29T17:24:14.989Z,0.50
2023-01-29T17:26:42.464Z,3.50
2023-01-29T17:29:15.625Z,0.50
2023-01-29T17:31:43.521Z,0.40
2023-01-29T17:34:15.499Z,0.40
2023-01-29T17:36:46.018Z,0.30
2023-01-29T17:39:21.380Z,0.20
2023-01-29T17:41:52.281Z,0.20
2023-01-29T17:44:19.737Z,0.20
2023-01-29T17:46:47.532Z,2.20
2023-01-29T17:49:23.696Z,0.10
2023-01-29T17:51:52.154Z,0.10
2023-01-29T17:54:20.287Z,0.10
2023-01-29T17:56:48.166Z,0.00
2023-01-29T17:59:18.290Z,-0.10
2023-01-29T18:01:46.617Z,2.80
2023-01-29T18:04:13.813Z,2.90
2023-01-29T18:06:42.819Z,-0.10
2023-01-29T18:09:17.055Z,0.00
2023-01-29T18:11:43.939Z,0.00
2023-01-29T18:14:13.910Z,-0.10
2023-01-29T18:16:43.620Z,-0.10
2023-01-29T18:19:22.752Z,-0.10
2023-01-29T18:21:50.639Z,-0.30
2023-01-29T18:24:17.817Z,-0.20
2023-01-29T18:26:44.839Z,-0.20
2023-01-29T18:29:11.813Z,-0.30
2023-01-29T18:31:39.256Z,1.30
2023-01-29T18:34:06.472Z,-0.40
2023-01-29T18:36:33.561Z,-0.30
2023-01-29T18:39:00.475Z,-0.40
2023-01-29T18:41:27.412Z,1.10
2023-01-29T18:43:54.364Z,-0.50
2023-01-29T18:46:22.366Z,-0.40
2023-01-29T18:48:50.662Z,-0.30
2023-01-29T18:51:17.523Z,-0.30
2023-01-29T18:53:46.517Z,-0.40
2023-01-29T18:56:14.185Z,-0.50
2023-01-29T18:58:41.122Z,0.40
2023-01-29T19:01:11.799Z,-0.60
2023-01-29T19:03:40.936Z,-0.60
2023-01-29T19:06:10.879Z,-0.60
2023-01-29T19:08:38.782Z,-0.60
2023-01-29T19:11:08.167Z,-0.50
2023-01-29T19:13:37.047Z,-0.50
2023-01-29T19:16:09.107Z,-0.50
2023-01-29T19:21:13.030Z,-0.50
2023-01-29T19:23:41.429Z,-0.60
2023-01-29T19:26:08.772Z,-0.70
2023-01-29T19:28:36.231Z,-0.60
2023-01-29T19:31:03.832Z,-0.60
2023-01-29T19:33:30.852Z,-0.60
2023-01-29T19:36:00.391Z,-0.70
2023-01-29T19:38:28.481Z,-0.50
2023-01-29T19:40:55.510Z,-0.50
2023-01-29T19:43:22.547Z,-0.60
2023-01-29T19:45:50.991Z,-0.70
2023-01-29T19:48:21.824Z,-0.80
2023-01-29T19:51:01.137Z,-0.80
2023-01-29T19:53:29.348Z,-0.90
2023-01-29T19:56:05.057Z,-0.90
2023-01-29T19:58:32.991Z,-1.00
2023-01-29T20:01:04.302Z,-1.10
2023-01-29T20:03:31.578Z,-1.10
2023-01-29T20:06:04.338Z,-1.20
2023-01-29T20:08:32.171Z,-1.10
2023-01-29T20:10:59.181Z,-1.20
2023-01-29T20:13:26.290Z,-1.30
2023-01-29T20:15:53.585Z,-1.30
2023-01-29T20:18:20.631Z,-1.30
2023-01-29T20:20:50.190Z,-1.30
2023-01-29T20:23:35.242Z,-1.20
2023-01-29T20:26:04.319Z,-1.20
2023-01-29T20:28:31.397Z,-1.40
2023-01-29T20:30:58.994Z,-1.40
2023-01-29T20:33:26.513Z,-1.50
2023-01-29T20:36:00.234Z,-1.30
2023-01-29T20:38:30.504Z,-1.50
2023-01-29T20:41:15.077Z,-1.50
2023-01-29T20:46:12.373Z,-1.40
2023-01-29T20:48:40.020Z,-1.50
2023-01-29T20:51:16.527Z,-1.60
2023-01-29T20:53:46.048Z,1.90
2023-01-29T20:56:15.667Z,-1.60
2023-01-29T20:58:42.992Z,-1.50
2023-01-29T21:01:12.571Z,-1.60
2023-01-29T21:03:40.316Z,-1.50
2023-01-29T21:06:11.686Z,-1.70
2023-01-29T21:08:39.782Z,-1.70
2023-01-29T21:11:09.147Z,-1.80
2023-01-29T21:16:04.857Z,-2.10
2023-01-29T21:28:21.713Z,-2.00
2023-01-29T21:30:48.900Z,-1.90
2023-01-29T21:33:15.824Z,-2.00
2023-01-29T21:35:42.916Z,-1.80
2023-01-29T21:40:37.085Z,-2.00
2023-01-29T21:43:13.240Z,-2.00
2023-01-29T21:45:41.111Z,-2.30
2023-01-29T21:48:11.605Z,-2.10
2023-01-29T21:50:38.957Z,-2.10
2023-01-29T21:55:33.904Z,-2.20
2023-01-29T22:00:28.624Z,-2.00
2023-01-29T22:02:55.622Z,-2.20
2023-01-29T22:05:22.531Z,-2.30
2023-01-29T22:07:50.411Z,-2.30
2023-01-29T22:10:19.250Z,-2.40
2023-01-29T22:12:47.466Z,-2.40
2023-01-29T22:20:12.703Z,-2.40
2023-01-29T22:22:39.947Z,-2.50
2023-01-29T22:30:02.590Z,-2.50
2023-01-29T22:34:58.468Z,-2.50
2023-01-29T22:37:25.406Z,-2.40
2023-01-29T22:42:20.799Z,-2.50
2023-01-29T22:44:48.535Z,-2.50
2023-01-29T22:54:43.014Z,-2.70
2023-01-29T22:57:12.385Z,-2.80
2023-01-29T22:59:39.618Z,-2.70
2023-01-29T23:02:08.241Z,-2.80
2023-01-29T23:07:03.418Z,-2.70
2023-01-29T23:09:30.475Z,-2.80
2023-01-29T23:11:57.580Z,-2.60
2023-01-29T23:16:51.863Z,-2.70
2023-01-29T23:21:46.013Z,-2.80
2023-01-29T23:26:58.716Z,-2.70
2023-01-29T23:31:53.087Z,-2.70
2023-01-29T23:39:15.496Z,-2.90
2023-01-29T23:44:10.327Z,-2.80
2023-01-29T23:56:27.959Z,-2.90
2023-01-29T23:58:56.848Z,-3.00
